sensor_id;sensor_type;location;lat;lon;timestamp;P1;durP1;ratioP1;P2;durP2;ratioP2
7383;SDS011;3733;47.994;8.820;2022-08-27T00:00:18;3.70;;;3.20;;
7383;SDS011;3733;47.994;8.820;2022-08-27T00:02:45;3.87;;;3.20;;
7383;SDS011;3733;47.994;8.820;2022-08-27T00:05:12;3.33;;;3.03;;
7383;SDS011;3733;47.994;8.820;2022-08-27T00:07:39;4.87;;;4.10;;
7383;SDS011;3733;47.994;8.820;2022-08-27T00:10:06;4.00;;;3.40;;
7383;SDS011;3733;47.994;8.820;2022-08-27T00:12:35;3.77;;;3.30;;
7383;SDS011;3733;47.994;8.820;2022-08-27T00:15:01;3.17;;;2.90;;
7383;SDS011;3733;47.994;8.820;2022-08-27T00:17:28;3.97;;;3.60;;
7383;SDS011;3733;47.994;8.820;2022-08-27T00:19:53;5.43;;;3.90;;
7383;SDS011;3733;47.994;8.820;2022-08-27T00:22:19;4.40;;;3.30;;
7383;SDS011;3733;47.994;8.820;2022-08-27T00:24:45;8.23;;;3.50;;
7383;SDS011;3733;47.994;8.820;2022-08-27T00:27:10;3.87;;;3.53;;
7383;SDS011;3733;47.994;8.820;2022-08-27T00:29:36;5.40;;;3.30;;
7383;SDS011;3733;47.994;8.820;2022-08-27T00:32:02;3.57;;;3.27;;
7383;SDS011;3733;47.994;8.820;2022-08-27T00:34:28;3.70;;;3.40;;
7383;SDS011;3733;47.994;8.820;2022-08-27T00:36:55;4.17;;;3.77;;
7383;SDS011;3733;47.994;8.820;2022-08-27T00:39:21;3.23;;;2.93;;
7383;SDS011;3733;47.994;8.820;2022-08-27T00:41:47;5.10;;;3.77;;
7383;SDS011;3733;47.994;8.820;2022-08-27T00:44:13;4.20;;;3.50;;
7383;SDS011;3733;47.994;8.820;2022-08-27T00:46:47;4.97;;;3.50;;
7383;SDS011;3733;47.994;8.820;2022-08-27T00:49:31;5.07;;;4.33;;
7383;SDS011;3733;47.994;8.820;2022-08-27T00:52:04;4.43;;;3.30;;
7383;SDS011;3733;47.994;8.820;2022-08-27T00:54:34;3.43;;;3.13;;
7383;SDS011;3733;47.994;8.820;2022-08-27T00:56:59;4.97;;;3.63;;
7383;SDS011;3733;47.994;8.820;2022-08-27T00:59:27;5.50;;;4.90;;
7383;SDS011;3733;47.994;8.820;2022-08-27T01:01:55;5.90;;;3.83;;
7383;SDS011;3733;47.994;8.820;2022-08-27T01:04:40;5.60;;;3.00;;
7383;SDS011;3733;47.994;8.820;2022-08-27T01:07:08;4.83;;;3.37;;
7383;SDS011;3733;47.994;8.820;2022-08-27T01:09:34;3.53;;;3.23;;
7383;SDS011;3733;47.994;8.820;2022-08-27T01:12:01;3.80;;;3.50;;
7383;SDS011;3733;47.994;8.820;2022-08-27T01:14:27;5.53;;;3.50;;
7383;SDS011;3733;47.994;8.820;2022-08-27T01:16:54;6.00;;;4.10;;
7383;SDS011;3733;47.994;8.820;2022-08-27T01:19:29;4.40;;;3.40;;
7383;SDS011;3733;47.994;8.820;2022-08-27T01:22:04;4.10;;;3.60;;
7383;SDS011;3733;47.994;8.820;2022-08-27T01:24:43;3.27;;;2.97;;
7383;SDS011;3733;47.994;8.820;2022-08-27T01:27:12;3.30;;;3.00;;
7383;SDS011;3733;47.994;8.820;2022-08-27T01:29:42;3.53;;;3.23;;
7383;SDS011;3733;47.994;8.820;2022-08-27T01:32:13;3.40;;;3.10;;
7383;SDS011;3733;47.994;8.820;2022-08-27T01:34:41;3.50;;;3.20;;
7383;SDS011;3733;47.994;8.820;2022-08-27T01:37:07;3.70;;;3.27;;
7383;SDS011;3733;47.994;8.820;2022-08-27T01:39:34;4.40;;;3.70;;
7383;SDS011;3733;47.994;8.820;2022-08-27T01:42:05;3.60;;;3.30;;
7383;SDS011;3733;47.994;8.820;2022-08-27T01:44:49;4.70;;;4.00;;
7383;SDS011;3733;47.994;8.820;2022-08-27T01:47:18;5.20;;;3.40;;
7383;SDS011;3733;47.994;8.820;2022-08-27T01:49:45;6.63;;;3.70;;
7383;SDS011;3733;47.994;8.820;2022-08-27T01:52:11;4.10;;;3.43;;
7383;SDS011;3733;47.994;8.820;2022-08-27T01:54:39;6.40;;;3.53;;
7383;SDS011;3733;47.994;8.820;2022-08-27T01:57:05;4.50;;;3.60;;
7383;SDS011;3733;47.994;8.820;2022-08-27T01:59:30;7.30;;;4.20;;
7383;SDS011;3733;47.994;8.820;2022-08-27T02:01:57;4.73;;;3.80;;
7383;SDS011;3733;47.994;8.820;2022-08-27T02:04:26;8.17;;;3.90;;
7383;SDS011;3733;47.994;8.820;2022-08-27T02:06:53;4.23;;;3.80;;
7383;SDS011;3733;47.994;8.820;2022-08-27T02:09:18;5.10;;;4.23;;
7383;SDS011;3733;47.994;8.820;2022-08-27T02:11:44;5.57;;;4.50;;
7383;SDS011;3733;47.994;8.820;2022-08-27T02:14:10;6.30;;;4.43;;
7383;SDS011;3733;47.994;8.820;2022-08-27T02:16:36;4.83;;;3.93;;
7383;SDS011;3733;47.994;8.820;2022-08-27T02:19:02;5.67;;;4.33;;
7383;SDS011;3733;47.994;8.820;2022-08-27T02:21:27;12.47;;;4.10;;
7383;SDS011;3733;47.994;8.820;2022-08-27T02:23:53;7.07;;;5.10;;
7383;SDS011;3733;47.994;8.820;2022-08-27T02:26:19;5.50;;;4.20;;
7383;SDS011;3733;47.994;8.820;2022-08-27T02:28:46;5.43;;;4.77;;
7383;SDS011;3733;47.994;8.820;2022-08-27T02:31:11;7.80;;;4.40;;
7383;SDS011;3733;47.994;8.820;2022-08-27T02:33:38;11.00;;;4.30;;
7383;SDS011;3733;47.994;8.820;2022-08-27T02:36:04;4.50;;;3.93;;
7383;SDS011;3733;47.994;8.820;2022-08-27T02:38:30;6.40;;;4.20;;
7383;SDS011;3733;47.994;8.820;2022-08-27T02:40:56;6.40;;;4.23;;
7383;SDS011;3733;47.994;8.820;2022-08-27T02:43:22;5.63;;;4.30;;
7383;SDS011;3733;47.994;8.820;2022-08-27T02:45:47;6.50;;;5.00;;
7383;SDS011;3733;47.994;8.820;2022-08-27T02:48:14;5.00;;;4.10;;
7383;SDS011;3733;47.994;8.820;2022-08-27T02:50:40;5.80;;;4.10;;
7383;SDS011;3733;47.994;8.820;2022-08-27T02:53:07;4.20;;;3.80;;
7383;SDS011;3733;47.994;8.820;2022-08-27T02:55:34;4.50;;;4.10;;
7383;SDS011;3733;47.994;8.820;2022-08-27T02:58:00;5.30;;;4.40;;
7383;SDS011;3733;47.994;8.820;2022-08-27T03:00:26;5.93;;;4.70;;
7383;SDS011;3733;47.994;8.820;2022-08-27T03:02:53;6.33;;;5.17;;
7383;SDS011;3733;47.994;8.820;2022-08-27T03:05:19;4.90;;;4.40;;
7383;SDS011;3733;47.994;8.820;2022-08-27T03:07:44;7.50;;;4.97;;
7383;SDS011;3733;47.994;8.820;2022-08-27T03:10:11;6.30;;;4.87;;
7383;SDS011;3733;47.994;8.820;2022-08-27T03:12:39;7.20;;;4.80;;
7383;SDS011;3733;47.994;8.820;2022-08-27T03:15:05;6.63;;;5.63;;
7383;SDS011;3733;47.994;8.820;2022-08-27T03:17:34;7.00;;;5.30;;
7383;SDS011;3733;47.994;8.820;2022-08-27T03:20:19;4.30;;;3.90;;
7383;SDS011;3733;47.994;8.820;2022-08-27T03:22:45;5.60;;;3.80;;
7383;SDS011;3733;47.994;8.820;2022-08-27T03:25:11;5.60;;;4.50;;
7383;SDS011;3733;47.994;8.820;2022-08-27T03:27:37;7.00;;;4.20;;
7383;SDS011;3733;47.994;8.820;2022-08-27T03:30:04;5.03;;;4.53;;
7383;SDS011;3733;47.994;8.820;2022-08-27T03:32:31;10.13;;;4.03;;
7383;SDS011;3733;47.994;8.820;2022-08-27T03:34:58;6.10;;;4.83;;
7383;SDS011;3733;47.994;8.820;2022-08-27T03:37:24;6.10;;;4.97;;
7383;SDS011;3733;47.994;8.820;2022-08-27T03:39:50;4.33;;;3.93;;
7383;SDS011;3733;47.994;8.820;2022-08-27T03:42:16;5.37;;;4.70;;
7383;SDS011;3733;47.994;8.820;2022-08-27T03:44:42;6.63;;;5.10;;
7383;SDS011;3733;47.994;8.820;2022-08-27T03:47:07;5.80;;;4.77;;
7383;SDS011;3733;47.994;8.820;2022-08-27T03:49:33;6.77;;;5.47;;
7383;SDS011;3733;47.994;8.820;2022-08-27T03:51:58;7.17;;;5.17;;
7383;SDS011;3733;47.994;8.820;2022-08-27T03:54:24;9.43;;;5.10;;
7383;SDS011;3733;47.994;8.820;2022-08-27T03:56:50;6.47;;;4.83;;
7383;SDS011;3733;47.994;8.820;2022-08-27T03:59:16;5.80;;;5.00;;
7383;SDS011;3733;47.994;8.820;2022-08-27T04:01:42;5.17;;;4.67;;
7383;SDS011;3733;47.994;8.820;2022-08-27T04:04:09;6.00;;;4.63;;
7383;SDS011;3733;47.994;8.820;2022-08-27T04:06:35;6.43;;;4.57;;
7383;SDS011;3733;47.994;8.820;2022-08-27T04:09:01;5.97;;;4.70;;
7383;SDS011;3733;47.994;8.820;2022-08-27T04:11:27;6.93;;;4.97;;
7383;SDS011;3733;47.994;8.820;2022-08-27T04:13:53;5.03;;;4.53;;
7383;SDS011;3733;47.994;8.820;2022-08-27T04:16:20;5.30;;;4.70;;
7383;SDS011;3733;47.994;8.820;2022-08-27T04:18:45;5.53;;;4.90;;
7383;SDS011;3733;47.994;8.820;2022-08-27T04:21:12;6.40;;;4.53;;
7383;SDS011;3733;47.994;8.820;2022-08-27T04:23:39;5.40;;;4.90;;
7383;SDS011;3733;47.994;8.820;2022-08-27T04:26:06;7.00;;;4.77;;
7383;SDS011;3733;47.994;8.820;2022-08-27T04:28:33;7.87;;;5.40;;
7383;SDS011;3733;47.994;8.820;2022-08-27T04:31:00;5.40;;;4.90;;
7383;SDS011;3733;47.994;8.820;2022-08-27T04:33:26;6.97;;;5.57;;
7383;SDS011;3733;47.994;8.820;2022-08-27T04:35:59;6.57;;;5.77;;
7383;SDS011;3733;47.994;8.820;2022-08-27T04:38:30;6.20;;;5.17;;
7383;SDS011;3733;47.994;8.820;2022-08-27T04:40:55;7.10;;;5.37;;
7383;SDS011;3733;47.994;8.820;2022-08-27T04:43:39;7.37;;;5.20;;
7383;SDS011;3733;47.994;8.820;2022-08-27T04:46:05;6.20;;;4.70;;
7383;SDS011;3733;47.994;8.820;2022-08-27T04:48:31;5.60;;;4.50;;
7383;SDS011;3733;47.994;8.820;2022-08-27T04:50:57;5.70;;;4.50;;
7383;SDS011;3733;47.994;8.820;2022-08-27T04:53:22;5.10;;;4.60;;
7383;SDS011;3733;47.994;8.820;2022-08-27T04:55:52;6.77;;;4.80;;
7383;SDS011;3733;47.994;8.820;2022-08-27T04:58:20;6.00;;;5.40;;
7383;SDS011;3733;47.994;8.820;2022-08-27T05:00:52;6.73;;;4.87;;
7383;SDS011;3733;47.994;8.820;2022-08-27T05:03:20;6.47;;;5.60;;
7383;SDS011;3733;47.994;8.820;2022-08-27T05:05:48;7.33;;;5.83;;
7383;SDS011;3733;47.994;8.820;2022-08-27T05:08:15;8.13;;;6.60;;
7383;SDS011;3733;47.994;8.820;2022-08-27T05:10:45;7.67;;;5.93;;
7383;SDS011;3733;47.994;8.820;2022-08-27T05:13:12;6.57;;;5.80;;
7383;SDS011;3733;47.994;8.820;2022-08-27T05:15:39;7.63;;;6.00;;
7383;SDS011;3733;47.994;8.820;2022-08-27T05:18:05;8.13;;;5.70;;
7383;SDS011;3733;47.994;8.820;2022-08-27T05:20:32;10.40;;;6.77;;
7383;SDS011;3733;47.994;8.820;2022-08-27T05:23:05;7.70;;;6.33;;
7383;SDS011;3733;47.994;8.820;2022-08-27T05:25:30;8.87;;;7.00;;
7383;SDS011;3733;47.994;8.820;2022-08-27T05:27:56;7.80;;;6.93;;
7383;SDS011;3733;47.994;8.820;2022-08-27T05:30:21;8.30;;;6.80;;
7383;SDS011;3733;47.994;8.820;2022-08-27T05:32:47;9.83;;;6.70;;
7383;SDS011;3733;47.994;8.820;2022-08-27T05:35:13;9.90;;;6.60;;
7383;SDS011;3733;47.994;8.820;2022-08-27T05:37:39;8.70;;;6.10;;
7383;SDS011;3733;47.994;8.820;2022-08-27T05:40:04;7.80;;;5.80;;
7383;SDS011;3733;47.994;8.820;2022-08-27T05:42:31;6.80;;;5.97;;
7383;SDS011;3733;47.994;8.820;2022-08-27T05:44:57;8.90;;;6.50;;
7383;SDS011;3733;47.994;8.820;2022-08-27T05:47:23;10.50;;;6.70;;
7383;SDS011;3733;47.994;8.820;2022-08-27T05:49:52;7.70;;;6.67;;
7383;SDS011;3733;47.994;8.820;2022-08-27T05:52:18;6.80;;;6.10;;
7383;SDS011;3733;47.994;8.820;2022-08-27T05:54:45;10.90;;;6.70;;
7383;SDS011;3733;47.994;8.820;2022-08-27T05:57:11;8.07;;;6.37;;
7383;SDS011;3733;47.994;8.820;2022-08-27T05:59:36;14.00;;;6.80;;
7383;SDS011;3733;47.994;8.820;2022-08-27T06:02:21;8.60;;;7.67;;
7383;SDS011;3733;47.994;8.820;2022-08-27T06:04:47;10.60;;;7.17;;
7383;SDS011;3733;47.994;8.820;2022-08-27T06:07:13;9.23;;;7.40;;
7383;SDS011;3733;47.994;8.820;2022-08-27T06:09:39;9.50;;;7.30;;
7383;SDS011;3733;47.994;8.820;2022-08-27T06:12:06;8.77;;;7.03;;
7383;SDS011;3733;47.994;8.820;2022-08-27T06:14:32;10.47;;;7.63;;
7383;SDS011;3733;47.994;8.820;2022-08-27T06:17:00;10.33;;;8.03;;
7383;SDS011;3733;47.994;8.820;2022-08-27T06:19:25;9.90;;;7.97;;
7383;SDS011;3733;47.994;8.820;2022-08-27T06:21:51;12.17;;;8.23;;
7383;SDS011;3733;47.994;8.820;2022-08-27T06:24:17;10.80;;;8.20;;
7383;SDS011;3733;47.994;8.820;2022-08-27T06:26:43;9.40;;;8.40;;
7383;SDS011;3733;47.994;8.820;2022-08-27T06:29:10;10.63;;;8.57;;
7383;SDS011;3733;47.994;8.820;2022-08-27T06:31:37;10.00;;;8.10;;
7383;SDS011;3733;47.994;8.820;2022-08-27T06:34:04;9.00;;;7.83;;
7383;SDS011;3733;47.994;8.820;2022-08-27T06:36:31;10.17;;;8.70;;
7383;SDS011;3733;47.994;8.820;2022-08-27T06:38:58;10.70;;;8.80;;
7383;SDS011;3733;47.994;8.820;2022-08-27T06:41:24;10.73;;;8.77;;
7383;SDS011;3733;47.994;8.820;2022-08-27T06:43:52;10.70;;;8.30;;
7383;SDS011;3733;47.994;8.820;2022-08-27T06:46:20;11.57;;;8.57;;
7383;SDS011;3733;47.994;8.820;2022-08-27T06:48:51;10.87;;;8.87;;
7383;SDS011;3733;47.994;8.820;2022-08-27T06:51:19;11.03;;;8.33;;
7383;SDS011;3733;47.994;8.820;2022-08-27T06:53:48;14.40;;;10.70;;
7383;SDS011;3733;47.994;8.820;2022-08-27T06:56:14;13.83;;;10.23;;
7383;SDS011;3733;47.994;8.820;2022-08-27T06:58:41;18.90;;;12.20;;
7383;SDS011;3733;47.994;8.820;2022-08-27T07:01:17;19.77;;;12.47;;
7383;SDS011;3733;47.994;8.820;2022-08-27T07:03:46;18.63;;;13.80;;
7383;SDS011;3733;47.994;8.820;2022-08-27T07:06:12;21.17;;;15.10;;
7383;SDS011;3733;47.994;8.820;2022-08-27T07:08:39;20.77;;;14.43;;
7383;SDS011;3733;47.994;8.820;2022-08-27T07:11:06;24.43;;;16.20;;
7383;SDS011;3733;47.994;8.820;2022-08-27T07:13:33;29.80;;;16.73;;
7383;SDS011;3733;47.994;8.820;2022-08-27T07:16:06;26.03;;;16.87;;
7383;SDS011;3733;47.994;8.820;2022-08-27T07:18:34;22.83;;;16.93;;
7383;SDS011;3733;47.994;8.820;2022-08-27T07:21:00;20.60;;;14.97;;
7383;SDS011;3733;47.994;8.820;2022-08-27T07:23:28;25.10;;;16.67;;
7383;SDS011;3733;47.994;8.820;2022-08-27T07:25:54;24.63;;;15.73;;
7383;SDS011;3733;47.994;8.820;2022-08-27T07:28:20;21.53;;;15.47;;
7383;SDS011;3733;47.994;8.820;2022-08-27T07:30:46;22.23;;;14.37;;
7383;SDS011;3733;47.994;8.820;2022-08-27T07:33:12;20.40;;;13.73;;
7383;SDS011;3733;47.994;8.820;2022-08-27T07:35:37;21.03;;;14.87;;
7383;SDS011;3733;47.994;8.820;2022-08-27T07:38:03;22.73;;;15.00;;
7383;SDS011;3733;47.994;8.820;2022-08-27T07:40:28;18.97;;;13.87;;
7383;SDS011;3733;47.994;8.820;2022-08-27T07:42:54;22.63;;;15.37;;
7383;SDS011;3733;47.994;8.820;2022-08-27T07:45:46;27.73;;;16.53;;
7383;SDS011;3733;47.994;8.820;2022-08-27T07:48:13;32.53;;;17.23;;
7383;SDS011;3733;47.994;8.820;2022-08-27T07:50:40;19.27;;;14.70;;
7383;SDS011;3733;47.994;8.820;2022-08-27T07:53:07;19.87;;;14.80;;
7383;SDS011;3733;47.994;8.820;2022-08-27T07:55:36;29.60;;;15.80;;
7383;SDS011;3733;47.994;8.820;2022-08-27T07:58:03;22.63;;;15.43;;
7383;SDS011;3733;47.994;8.820;2022-08-27T08:00:29;24.10;;;17.00;;
7383;SDS011;3733;47.994;8.820;2022-08-27T08:02:55;23.77;;;16.90;;
7383;SDS011;3733;47.994;8.820;2022-08-27T08:05:21;24.00;;;15.60;;
7383;SDS011;3733;47.994;8.820;2022-08-27T08:07:47;26.80;;;16.77;;
7383;SDS011;3733;47.994;8.820;2022-08-27T08:10:14;23.67;;;15.53;;
7383;SDS011;3733;47.994;8.820;2022-08-27T08:12:40;24.63;;;16.90;;
7383;SDS011;3733;47.994;8.820;2022-08-27T08:15:07;27.30;;;14.53;;
7383;SDS011;3733;47.994;8.820;2022-08-27T08:17:35;26.30;;;15.63;;
7383;SDS011;3733;47.994;8.820;2022-08-27T08:20:02;22.77;;;14.63;;
7383;SDS011;3733;47.994;8.820;2022-08-27T08:22:30;23.83;;;15.30;;
7383;SDS011;3733;47.994;8.820;2022-08-27T08:24:55;19.50;;;14.83;;
7383;SDS011;3733;47.994;8.820;2022-08-27T08:27:21;21.97;;;14.47;;
7383;SDS011;3733;47.994;8.820;2022-08-27T08:29:47;27.50;;;17.23;;
7383;SDS011;3733;47.994;8.820;2022-08-27T08:32:13;20.33;;;15.73;;
7383;SDS011;3733;47.994;8.820;2022-08-27T08:34:39;23.97;;;16.07;;
7383;SDS011;3733;47.994;8.820;2022-08-27T08:37:05;19.90;;;14.90;;
7383;SDS011;3733;47.994;8.820;2022-08-27T08:39:32;23.33;;;16.50;;
7383;SDS011;3733;47.994;8.820;2022-08-27T08:42:00;21.37;;;15.60;;
7383;SDS011;3733;47.994;8.820;2022-08-27T08:47:17;30.67;;;18.10;;
7383;SDS011;3733;47.994;8.820;2022-08-27T08:55:06;23.80;;;16.37;;
7383;SDS011;3733;47.994;8.820;2022-08-27T08:57:46;24.90;;;16.90;;
7383;SDS011;3733;47.994;8.820;2022-08-27T09:00:15;22.27;;;16.37;;
7383;SDS011;3733;47.994;8.820;2022-08-27T09:02:44;26.03;;;16.27;;
7383;SDS011;3733;47.994;8.820;2022-08-27T09:05:18;22.00;;;15.30;;
7383;SDS011;3733;47.994;8.820;2022-08-27T09:12:59;20.60;;;15.43;;
7383;SDS011;3733;47.994;8.820;2022-08-27T09:15:28;22.80;;;16.20;;
7383;SDS011;3733;47.994;8.820;2022-08-27T09:18:07;23.93;;;15.77;;
7383;SDS011;3733;47.994;8.820;2022-08-27T09:20:35;22.10;;;14.73;;
7383;SDS011;3733;47.994;8.820;2022-08-27T09:25:43;28.87;;;16.10;;
7383;SDS011;3733;47.994;8.820;2022-08-27T09:28:42;19.57;;;13.53;;
7383;SDS011;3733;47.994;8.820;2022-08-27T09:31:23;17.77;;;13.90;;
7383;SDS011;3733;47.994;8.820;2022-08-27T09:33:49;18.93;;;13.70;;
7383;SDS011;3733;47.994;8.820;2022-08-27T09:36:15;17.83;;;12.63;;
7383;SDS011;3733;47.994;8.820;2022-08-27T09:38:50;18.07;;;12.80;;
7383;SDS011;3733;47.994;8.820;2022-08-27T09:41:23;24.83;;;14.13;;
7383;SDS011;3733;47.994;8.820;2022-08-27T09:44:06;18.83;;;12.93;;
7383;SDS011;3733;47.994;8.820;2022-08-27T09:46:34;18.37;;;11.20;;
7383;SDS011;3733;47.994;8.820;2022-08-27T09:49:10;14.80;;;11.90;;
7383;SDS011;3733;47.994;8.820;2022-08-27T09:51:40;18.80;;;12.90;;
7383;SDS011;3733;47.994;8.820;2022-08-27T09:54:08;20.90;;;14.20;;
7383;SDS011;3733;47.994;8.820;2022-08-27T09:56:40;18.73;;;14.00;;
7383;SDS011;3733;47.994;8.820;2022-08-27T09:59:29;20.70;;;14.53;;
7383;SDS011;3733;47.994;8.820;2022-08-27T10:02:04;21.23;;;14.43;;
7383;SDS011;3733;47.994;8.820;2022-08-27T10:04:43;17.23;;;13.27;;
7383;SDS011;3733;47.994;8.820;2022-08-27T10:10:25;21.60;;;12.83;;
7383;SDS011;3733;47.994;8.820;2022-08-27T10:13:00;20.53;;;13.10;;
7383;SDS011;3733;47.994;8.820;2022-08-27T10:15:36;20.77;;;15.10;;
7383;SDS011;3733;47.994;8.820;2022-08-27T10:18:22;21.03;;;14.30;;
7383;SDS011;3733;47.994;8.820;2022-08-27T10:23:32;20.30;;;14.97;;
7383;SDS011;3733;47.994;8.820;2022-08-27T10:40:46;26.33;;;16.47;;
7383;SDS011;3733;47.994;8.820;2022-08-27T11:00:22;21.40;;;13.17;;
7383;SDS011;3733;47.994;8.820;2022-08-27T11:07:55;18.83;;;12.90;;
7383;SDS011;3733;47.994;8.820;2022-08-27T11:12:57;16.20;;;12.80;;
7383;SDS011;3733;47.994;8.820;2022-08-27T11:15:30;22.13;;;12.70;;
7383;SDS011;3733;47.994;8.820;2022-08-27T11:18:06;17.17;;;12.67;;
7383;SDS011;3733;47.994;8.820;2022-08-27T11:20:40;17.40;;;12.33;;
7383;SDS011;3733;47.994;8.820;2022-08-27T11:23:18;15.20;;;11.40;;
7383;SDS011;3733;47.994;8.820;2022-08-27T11:25:50;17.30;;;12.47;;
7383;SDS011;3733;47.994;8.820;2022-08-27T11:28:25;16.37;;;12.57;;
7383;SDS011;3733;47.994;8.820;2022-08-27T11:44:24;14.73;;;10.97;;
7383;SDS011;3733;47.994;8.820;2022-08-27T11:46:55;16.07;;;12.27;;
7383;SDS011;3733;47.994;8.820;2022-08-27T11:52:40;20.13;;;12.17;;
7383;SDS011;3733;47.994;8.820;2022-08-27T11:57:46;14.77;;;10.97;;
7383;SDS011;3733;47.994;8.820;2022-08-27T12:02:56;16.70;;;10.50;;
7383;SDS011;3733;47.994;8.820;2022-08-27T12:05:46;12.60;;;11.00;;
7383;SDS011;3733;47.994;8.820;2022-08-27T12:26:52;13.70;;;10.57;;
7383;SDS011;3733;47.994;8.820;2022-08-27T12:30:00;14.50;;;10.93;;
7383;SDS011;3733;47.994;8.820;2022-08-27T12:35:13;11.10;;;8.90;;
7383;SDS011;3733;47.994;8.820;2022-08-27T12:37:52;11.50;;;9.40;;
7383;SDS011;3733;47.994;8.820;2022-08-27T12:40:41;11.13;;;9.40;;
7383;SDS011;3733;47.994;8.820;2022-08-27T12:43:16;11.60;;;9.43;;
7383;SDS011;3733;47.994;8.820;2022-08-27T12:48:18;15.20;;;11.63;;
7383;SDS011;3733;47.994;8.820;2022-08-27T12:50:54;19.07;;;12.57;;
7383;SDS011;3733;47.994;8.820;2022-08-27T12:59:11;15.87;;;12.17;;
7383;SDS011;3733;47.994;8.820;2022-08-27T13:01:59;15.27;;;11.63;;
7383;SDS011;3733;47.994;8.820;2022-08-27T13:04:31;17.93;;;12.10;;
7383;SDS011;3733;47.994;8.820;2022-08-27T13:06:58;22.50;;;11.77;;
7383;SDS011;3733;47.994;8.820;2022-08-27T13:09:25;21.40;;;12.80;;
7383;SDS011;3733;47.994;8.820;2022-08-27T13:11:53;20.07;;;13.30;;
7383;SDS011;3733;47.994;8.820;2022-08-27T13:14:21;16.97;;;12.27;;
7383;SDS011;3733;47.994;8.820;2022-08-27T13:22:01;12.63;;;9.17;;
7383;SDS011;3733;47.994;8.820;2022-08-27T13:24:34;13.13;;;8.43;;
7383;SDS011;3733;47.994;8.820;2022-08-27T13:27:02;12.43;;;8.87;;
7383;SDS011;3733;47.994;8.820;2022-08-27T13:29:29;15.30;;;9.17;;
7383;SDS011;3733;47.994;8.820;2022-08-27T13:31:56;12.80;;;7.93;;
7383;SDS011;3733;47.994;8.820;2022-08-27T13:34:24;14.00;;;9.17;;
7383;SDS011;3733;47.994;8.820;2022-08-27T13:36:54;13.00;;;8.87;;
7383;SDS011;3733;47.994;8.820;2022-08-27T13:39:27;10.37;;;8.47;;
7383;SDS011;3733;47.994;8.820;2022-08-27T13:41:53;13.37;;;8.57;;
7383;SDS011;3733;47.994;8.820;2022-08-27T13:44:24;12.27;;;8.73;;
7383;SDS011;3733;47.994;8.820;2022-08-27T13:46:59;16.07;;;10.03;;
7383;SDS011;3733;47.994;8.820;2022-08-27T13:49:32;17.97;;;10.73;;
7383;SDS011;3733;47.994;8.820;2022-08-27T13:54:48;18.47;;;12.83;;
7383;SDS011;3733;47.994;8.820;2022-08-27T13:57:24;14.50;;;9.80;;
7383;SDS011;3733;47.994;8.820;2022-08-27T14:00:15;15.27;;;9.70;;
7383;SDS011;3733;47.994;8.820;2022-08-27T14:02:42;16.20;;;9.70;;
7383;SDS011;3733;47.994;8.820;2022-08-27T14:05:12;13.40;;;9.47;;
7383;SDS011;3733;47.994;8.820;2022-08-27T14:07:55;15.03;;;10.77;;
7383;SDS011;3733;47.994;8.820;2022-08-27T14:10:29;17.73;;;11.70;;
7383;SDS011;3733;47.994;8.820;2022-08-27T14:13:21;18.97;;;10.70;;
7383;SDS011;3733;47.994;8.820;2022-08-27T14:15:46;29.83;;;11.37;;
7383;SDS011;3733;47.994;8.820;2022-08-27T14:18:34;16.47;;;11.47;;
7383;SDS011;3733;47.994;8.820;2022-08-27T14:21:01;16.17;;;11.47;;
7383;SDS011;3733;47.994;8.820;2022-08-27T14:23:28;16.97;;;11.20;;
7383;SDS011;3733;47.994;8.820;2022-08-27T14:25:56;16.63;;;11.37;;
7383;SDS011;3733;47.994;8.820;2022-08-27T14:28:24;16.73;;;12.07;;
7383;SDS011;3733;47.994;8.820;2022-08-27T14:30:50;16.93;;;11.60;;
7383;SDS011;3733;47.994;8.820;2022-08-27T14:33:16;16.80;;;11.13;;
7383;SDS011;3733;47.994;8.820;2022-08-27T14:35:42;15.20;;;11.40;;
7383;SDS011;3733;47.994;8.820;2022-08-27T14:38:12;14.97;;;10.50;;
7383;SDS011;3733;47.994;8.820;2022-08-27T14:40:39;13.20;;;10.47;;
7383;SDS011;3733;47.994;8.820;2022-08-27T14:43:05;15.90;;;10.43;;
7383;SDS011;3733;47.994;8.820;2022-08-27T14:45:31;23.73;;;10.53;;
7383;SDS011;3733;47.994;8.820;2022-08-27T14:47:57;14.37;;;10.60;;
7383;SDS011;3733;47.994;8.820;2022-08-27T14:50:24;15.10;;;10.73;;
7383;SDS011;3733;47.994;8.820;2022-08-27T14:52:49;13.40;;;10.70;;
7383;SDS011;3733;47.994;8.820;2022-08-27T14:55:15;15.23;;;11.07;;
7383;SDS011;3733;47.994;8.820;2022-08-27T14:57:41;16.13;;;10.93;;
7383;SDS011;3733;47.994;8.820;2022-08-27T15:00:07;15.93;;;11.13;;
7383;SDS011;3733;47.994;8.820;2022-08-27T15:02:34;18.03;;;11.30;;
7383;SDS011;3733;47.994;8.820;2022-08-27T15:05:00;27.73;;;11.93;;
7383;SDS011;3733;47.994;8.820;2022-08-27T15:07:25;17.03;;;11.50;;
7383;SDS011;3733;47.994;8.820;2022-08-27T15:09:51;19.77;;;11.30;;
7383;SDS011;3733;47.994;8.820;2022-08-27T15:12:19;17.17;;;11.63;;
7383;SDS011;3733;47.994;8.820;2022-08-27T15:14:44;16.20;;;11.20;;
7383;SDS011;3733;47.994;8.820;2022-08-27T15:17:10;15.30;;;11.20;;
7383;SDS011;3733;47.994;8.820;2022-08-27T15:19:36;15.83;;;11.10;;
7383;SDS011;3733;47.994;8.820;2022-08-27T15:22:13;17.50;;;12.00;;
7383;SDS011;3733;47.994;8.820;2022-08-27T15:24:53;14.90;;;11.30;;
7383;SDS011;3733;47.994;8.820;2022-08-27T15:27:21;15.77;;;10.87;;
7383;SDS011;3733;47.994;8.820;2022-08-27T15:29:48;17.87;;;10.40;;
7383;SDS011;3733;47.994;8.820;2022-08-27T15:32:25;20.60;;;11.40;;
7383;SDS011;3733;47.994;8.820;2022-08-27T15:34:59;14.07;;;11.60;;
7383;SDS011;3733;47.994;8.820;2022-08-27T15:37:26;18.33;;;10.80;;
7383;SDS011;3733;47.994;8.820;2022-08-27T15:39:52;14.67;;;10.83;;
7383;SDS011;3733;47.994;8.820;2022-08-27T15:42:18;14.57;;;10.00;;
7383;SDS011;3733;47.994;8.820;2022-08-27T15:44:49;13.17;;;9.63;;
7383;SDS011;3733;47.994;8.820;2022-08-27T15:47:19;15.43;;;10.50;;
7383;SDS011;3733;47.994;8.820;2022-08-27T15:49:45;14.53;;;9.20;;
7383;SDS011;3733;47.994;8.820;2022-08-27T15:52:10;10.90;;;9.00;;
7383;SDS011;3733;47.994;8.820;2022-08-27T15:54:38;14.40;;;9.77;;
7383;SDS011;3733;47.994;8.820;2022-08-27T15:57:04;19.83;;;10.80;;
7383;SDS011;3733;47.994;8.820;2022-08-27T15:59:31;15.23;;;11.17;;
7383;SDS011;3733;47.994;8.820;2022-08-27T16:01:57;15.57;;;11.33;;
7383;SDS011;3733;47.994;8.820;2022-08-27T16:04:24;22.13;;;11.53;;
7383;SDS011;3733;47.994;8.820;2022-08-27T16:06:50;13.47;;;10.80;;
7383;SDS011;3733;47.994;8.820;2022-08-27T16:09:16;11.67;;;8.93;;
7383;SDS011;3733;47.994;8.820;2022-08-27T16:11:42;18.83;;;10.63;;
7383;SDS011;3733;47.994;8.820;2022-08-27T16:14:09;13.37;;;9.70;;
7383;SDS011;3733;47.994;8.820;2022-08-27T16:16:35;13.40;;;9.30;;
7383;SDS011;3733;47.994;8.820;2022-08-27T16:19:02;16.53;;;9.10;;
7383;SDS011;3733;47.994;8.820;2022-08-27T16:21:30;14.97;;;10.10;;
7383;SDS011;3733;47.994;8.820;2022-08-27T16:23:58;15.60;;;10.50;;
7383;SDS011;3733;47.994;8.820;2022-08-27T16:26:25;15.33;;;11.00;;
7383;SDS011;3733;47.994;8.820;2022-08-27T16:28:51;12.37;;;8.70;;
7383;SDS011;3733;47.994;8.820;2022-08-27T16:31:17;12.90;;;10.40;;
7383;SDS011;3733;47.994;8.820;2022-08-27T16:33:43;11.83;;;9.57;;
7383;SDS011;3733;47.994;8.820;2022-08-27T16:36:09;12.50;;;10.00;;
7383;SDS011;3733;47.994;8.820;2022-08-27T16:38:35;16.33;;;9.60;;
7383;SDS011;3733;47.994;8.820;2022-08-27T16:41:01;12.77;;;9.40;;
7383;SDS011;3733;47.994;8.820;2022-08-27T16:43:27;10.50;;;8.80;;
7383;SDS011;3733;47.994;8.820;2022-08-27T16:45:55;11.40;;;8.93;;
7383;SDS011;3733;47.994;8.820;2022-08-27T16:48:23;12.00;;;9.40;;
7383;SDS011;3733;47.994;8.820;2022-08-27T16:51:09;13.20;;;9.50;;
7383;SDS011;3733;47.994;8.820;2022-08-27T16:53:40;14.80;;;9.53;;
7383;SDS011;3733;47.994;8.820;2022-08-27T16:56:07;12.80;;;9.53;;
7383;SDS011;3733;47.994;8.820;2022-08-27T16:58:33;13.57;;;9.23;;
7383;SDS011;3733;47.994;8.820;2022-08-27T17:01:08;11.60;;;8.57;;
7383;SDS011;3733;47.994;8.820;2022-08-27T17:03:39;12.43;;;9.27;;
7383;SDS011;3733;47.994;8.820;2022-08-27T17:06:07;10.27;;;8.30;;
7383;SDS011;3733;47.994;8.820;2022-08-27T17:08:33;11.20;;;8.70;;
7383;SDS011;3733;47.994;8.820;2022-08-27T17:10:58;14.13;;;8.30;;